createdAt,value
2023-11-20T00:03:23.785Z,9.4
2023-11-20T00:13:23.650Z,9.3
2023-11-20T00:23:23.748Z,8.9
2023-11-20T00:33:24.100Z,8.8
2023-11-20T00:43:23.638Z,8.6
2023-11-20T00:53:24.078Z,8.5
2023-11-20T01:03:23.771Z,8.7
2023-11-20T01:13:23.602Z,8.6
2023-11-20T01:23:23.567Z,8.3
2023-11-20T01:33:24.017Z,8.2
2023-11-20T01:43:23.543Z,8
2023-11-20T01:53:24.001Z,8.2
2023-11-20T02:03:25.593Z,8.2
2023-11-20T02:13:23.511Z,8.4
2023-11-20T02:23:23.563Z,8.3
2023-11-20T02:33:23.552Z,8.2
2023-11-20T02:43:23.481Z,8.3
2023-11-20T02:53:23.515Z,8.2
2023-11-20T03:03:28.628Z,8.2
2023-11-20T03:13:23.457Z,8.3
2023-11-20T03:23:23.489Z,8.2
2023-11-20T03:33:23.488Z,7.9
2023-11-20T03:43:23.452Z,7.8
2023-11-20T03:53:23.900Z,7.9
2023-11-20T04:03:23.482Z,8
2023-11-20T04:13:23.425Z,8.1
2023-11-20T04:23:23.461Z,8.1
2023-11-20T04:33:23.426Z,8.1
2023-11-20T04:43:23.827Z,7.9
2023-11-20T04:53:23.841Z,7.8
2023-11-20T05:03:23.508Z,7.9
2023-11-20T05:13:23.368Z,7.7
2023-11-20T05:23:23.437Z,7.7
2023-11-20T05:33:23.360Z,7.6
2023-11-20T05:43:23.740Z,7.3
2023-11-20T05:53:23.374Z,7.2
2023-11-20T06:03:23.396Z,7.1
2023-11-20T06:13:23.409Z,7.1
2023-11-20T06:23:23.299Z,7.1
2023-11-20T06:33:23.305Z,7.1
2023-11-20T06:43:23.281Z,7.2
2023-11-20T06:53:23.461Z,7.2
2023-11-20T07:03:23.345Z,7.2
2023-11-20T07:13:26.237Z,7.3
2023-11-20T07:23:23.289Z,7.4
2023-11-20T07:33:23.697Z,7.5
2023-11-20T07:43:23.261Z,7.6
2023-11-20T07:53:23.200Z,7.7
2023-11-20T08:03:23.213Z,7.7
2023-11-20T08:13:23.224Z,7.8
2023-11-20T08:23:23.235Z,7.9
2023-11-20T08:33:23.399Z,8
2023-11-20T08:43:23.218Z,8.2
2023-11-20T08:53:23.237Z,8.5
2023-11-20T09:03:23.195Z,9.1
2023-11-20T09:13:23.168Z,9.2
2023-11-20T09:23:23.195Z,9.2
2023-11-20T09:33:23.553Z,10
2023-11-20T09:43:23.157Z,10.3
2023-11-20T09:53:23.136Z,10.3
2023-11-20T10:03:23.196Z,10.1
2023-11-20T10:13:23.135Z,9.9
2023-11-20T10:23:23.109Z,10.1
2023-11-20T10:33:23.181Z,9.9
2023-11-20T10:43:23.115Z,10
2023-11-20T10:53:23.046Z,10.2
2023-11-20T11:03:23.127Z,10.1
2023-11-20T11:13:23.452Z,10.3
2023-11-20T11:23:24.952Z,10.7
2023-11-20T11:33:23.025Z,11
2023-11-20T11:43:23.039Z,11.5
2023-11-20T11:53:23.192Z,11.3
2023-11-20T12:03:23.058Z,11.3
2023-11-20T12:13:22.984Z,11.5
2023-11-20T12:23:22.965Z,11.8
2023-11-20T12:33:22.911Z,12.6
2023-11-20T12:43:22.947Z,14.3
2023-11-20T12:53:22.917Z,16.1
2023-11-20T13:03:23.465Z,15.6
2023-11-20T13:13:22.926Z,16.1
2023-11-20T13:23:22.888Z,17.4
2023-11-20T13:33:23.313Z,16.3
2023-11-20T13:43:22.850Z,14.4
2023-11-20T13:53:22.812Z,13.4
2023-11-20T14:03:22.974Z,12.8
2023-11-20T14:13:22.826Z,12.8
2023-11-20T14:23:22.753Z,13.1
2023-11-20T14:33:22.786Z,13
2023-11-20T14:43:23.179Z,13.1
2023-11-20T14:53:22.776Z,13.1
2023-11-20T15:03:22.992Z,12.8
2023-11-20T15:13:22.845Z,12.6
2023-11-20T15:23:22.738Z,12.3
2023-11-20T15:33:22.685Z,12
2023-11-20T15:43:22.704Z,11.8
2023-11-20T15:53:22.870Z,11.6
2023-11-20T16:03:22.749Z,11.5
2023-11-20T16:13:22.675Z,11.3
2023-11-20T16:23:22.664Z,11.2
2023-11-20T16:33:22.638Z,11
2023-11-20T16:43:22.615Z,11.1
2023-11-20T16:53:22.624Z,11.1
2023-11-20T17:03:22.676Z,11.1
2023-11-20T17:13:22.588Z,11.2
2023-11-20T17:23:22.593Z,11.1
2023-11-20T17:33:22.573Z,11.1
2023-11-20T17:43:22.553Z,11
2023-11-20T17:53:22.552Z,10.8
2023-11-20T18:03:22.638Z,10.8
2023-11-20T18:13:22.479Z,10.7
2023-11-20T18:23:22.506Z,10.7
2023-11-20T18:33:22.510Z,10.7
2023-11-20T18:43:22.453Z,10.6
2023-11-20T18:53:22.464Z,10.7
2023-11-20T19:03:22.510Z,10.6
2023-11-20T19:13:24.400Z,10.4
2023-11-20T19:23:23.383Z,10.2
2023-11-20T19:34:55.687Z,10.1
2023-11-20T19:43:22.412Z,10
2023-11-20T19:53:22.424Z,9.9
2023-11-20T20:03:22.605Z,9.8
2023-11-20T20:13:22.382Z,9.7
2023-11-20T20:23:22.404Z,10
2023-11-20T20:33:22.378Z,10.1
2023-11-20T20:43:22.348Z,10
2023-11-20T20:53:22.366Z,10.2
2023-11-20T21:03:22.350Z,9.9
2023-11-20T21:13:22.329Z,9.8
2023-11-20T21:23:22.520Z,9.8
2023-11-20T21:33:22.334Z,9.6
2023-11-20T21:43:22.382Z,9.6
2023-11-20T21:53:22.263Z,9.7
2023-11-20T22:03:22.355Z,9.6
2023-11-20T22:13:22.736Z,9.7
2023-11-20T22:23:22.223Z,9.6
2023-11-20T22:33:22.711Z,9.6
2023-11-20T22:43:22.230Z,9.4
2023-11-20T22:53:22.212Z,9.2
2023-11-20T23:03:22.279Z,9.2
2023-11-20T23:13:22.204Z,9.2
2023-11-20T23:23:22.623Z,9.2
2023-11-20T23:33:22.155Z,9.2
2023-11-20T23:43:22.351Z,9.1
2023-11-20T23:53:22.157Z,9.2
